Overview Statistics Trail Chart Weather Telemetry Raw packets
 

This is the latest recevied weather packets stored in our database for station/object SR3AK-10. If no packets are shown the sender has not sent any weather packets the latest 10 day(s).

<< 11 12 13 14 15 16 17 >>
Time Temp. Humidity Pressure Rain* Wind** Luminosity Snow
1777364624 13.89° C 51% 1022.2 hPa - - - -
1777363720 13.89° C 51% 1022.2 hPa - - - -
1777362820 13.89° C 51% 1022.2 hPa - - - -
1777361919 14.44° C 50% 1022.3 hPa - - - -
1777361023 14.44° C 49% 1022.3 hPa - - - -
1777360119 15° C 48% 1022.4 hPa - - - -
1777359221 15° C 47% 1022.4 hPa - - - -
1777358318 15° C 48% 1022.3 hPa - - - -
1777357421 13.33° C 52% 1022.2 hPa - - - -
1777356520 12.22° C 54% 1022.1 hPa - - - -
1777355618 12.78° C 52% 1022.2 hPa - - - -
1777354719 13.33° C 50% 1022.2 hPa - - - -
1777353820 13.89° C 49% 1022 hPa - - - -
1777352916 13.89° C 49% 1021.9 hPa - - - -
1777352018 12.22° C 54% 1021.8 hPa - - - -
1777351117 11.67° C 55% 1021.7 hPa - - - -
1777350214 11.67° C 55% 1021.5 hPa - - - -
1777349313 11.67° C 55% 1021.5 hPa - - - -
1777348416 11.67° C 55% 1021.3 hPa - - - -
1777347515 11.67° C 55% 1021.3 hPa - - - -
1777346613 11.67° C 56% 1021.2 hPa - - - -
1777344814 11.67° C 56% 1021.2 hPa - - - -
1777343912 12.22° C 56% 1021 hPa - - - -
1777343010 12.22° C 56% 1021 hPa - - - -
1777342109 12.22° C 56% 1020.9 hPa - - - -

* Rain since midnight (hover to see other rain measurements)
** Current wind speed in m/s (hover to see current wind gust speed)